sensor_id;sensor_type;location;lat;lon;timestamp;P1;durP1;ratioP1;P2;durP2;ratioP2
53521;SDS011;39398;48.382;9.802;2023-05-17T00:04:59;4.47;;;1.45;;
53521;SDS011;39398;48.382;9.802;2023-05-17T00:10:00;3.42;;;2.03;;
53521;SDS011;39398;48.382;9.802;2023-05-17T00:15:04;4.15;;;1.40;;
53521;SDS011;39398;48.382;9.802;2023-05-17T00:20:06;4.18;;;1.95;;
53521;SDS011;39398;48.382;9.802;2023-05-17T00:25:09;3.03;;;1.60;;
53521;SDS011;39398;48.382;9.802;2023-05-17T00:30:12;4.72;;;1.50;;
53521;SDS011;39398;48.382;9.802;2023-05-17T00:35:14;2.05;;;1.10;;
53521;SDS011;39398;48.382;9.802;2023-05-17T00:40:15;4.85;;;1.80;;
53521;SDS011;39398;48.382;9.802;2023-05-17T00:45:18;4.22;;;1.92;;
53521;SDS011;39398;48.382;9.802;2023-05-17T00:50:20;3.28;;;2.13;;
53521;SDS011;39398;48.382;9.802;2023-05-17T00:55:22;6.10;;;1.48;;
53521;SDS011;39398;48.382;9.802;2023-05-17T01:00:25;2.72;;;1.42;;
53521;SDS011;39398;48.382;9.802;2023-05-17T01:05:27;3.90;;;1.80;;
53521;SDS011;39398;48.382;9.802;2023-05-17T01:10:33;3.53;;;1.60;;
53521;SDS011;39398;48.382;9.802;2023-05-17T01:15:42;2.08;;;1.40;;
53521;SDS011;39398;48.382;9.802;2023-05-17T01:20:49;4.78;;;1.50;;
53521;SDS011;39398;48.382;9.802;2023-05-17T01:25:53;3.17;;;1.23;;
53521;SDS011;39398;48.382;9.802;2023-05-17T01:31:03;1.58;;;1.00;;
53521;SDS011;39398;48.382;9.802;2023-05-17T01:36:06;5.25;;;1.73;;
53521;SDS011;39398;48.382;9.802;2023-05-17T01:41:09;2.15;;;1.27;;
53521;SDS011;39398;48.382;9.802;2023-05-17T01:46:20;1.70;;;1.30;;
53521;SDS011;39398;48.382;9.802;2023-05-17T01:51:27;3.65;;;1.40;;
53521;SDS011;39398;48.382;9.802;2023-05-17T01:56:33;1.80;;;1.33;;
53521;SDS011;39398;48.382;9.802;2023-05-17T02:01:42;2.92;;;1.65;;
53521;SDS011;39398;48.382;9.802;2023-05-17T02:06:45;1.30;;;1.13;;
53521;SDS011;39398;48.382;9.802;2023-05-17T02:11:46;3.00;;;1.45;;
53521;SDS011;39398;48.382;9.802;2023-05-17T02:16:49;1.58;;;1.25;;
53521;SDS011;39398;48.382;9.802;2023-05-17T02:21:51;4.45;;;1.60;;
53521;SDS011;39398;48.382;9.802;2023-05-17T02:26:52;4.47;;;1.40;;
53521;SDS011;39398;48.382;9.802;2023-05-17T02:31:55;4.32;;;1.63;;
53521;SDS011;39398;48.382;9.802;2023-05-17T02:36:57;4.20;;;1.95;;
53521;SDS011;39398;48.382;9.802;2023-05-17T02:41:59;3.03;;;1.48;;
53521;SDS011;39398;48.382;9.802;2023-05-17T02:47:02;3.13;;;1.33;;
53521;SDS011;39398;48.382;9.802;2023-05-17T02:52:04;4.30;;;1.70;;
53521;SDS011;39398;48.382;9.802;2023-05-17T02:57:06;1.92;;;1.40;;
53521;SDS011;39398;48.382;9.802;2023-05-17T03:02:09;4.07;;;1.52;;
53521;SDS011;39398;48.382;9.802;2023-05-17T03:07:11;3.50;;;1.40;;
53521;SDS011;39398;48.382;9.802;2023-05-17T03:12:12;2.92;;;1.98;;
53521;SDS011;39398;48.382;9.802;2023-05-17T03:17:15;4.90;;;1.17;;
53521;SDS011;39398;48.382;9.802;2023-05-17T03:22:17;4.95;;;1.65;;
53521;SDS011;39398;48.382;9.802;2023-05-17T03:27:18;7.53;;;1.40;;
53521;SDS011;39398;48.382;9.802;2023-05-17T03:32:21;4.88;;;1.38;;
53521;SDS011;39398;48.382;9.802;2023-05-17T03:37:23;4.35;;;1.63;;
53521;SDS011;39398;48.382;9.802;2023-05-17T03:42:25;5.25;;;1.42;;
53521;SDS011;39398;48.382;9.802;2023-05-17T03:47:28;4.53;;;1.73;;
53521;SDS011;39398;48.382;9.802;2023-05-17T03:52:30;6.10;;;1.48;;
53521;SDS011;39398;48.382;9.802;2023-05-17T03:57:31;5.32;;;1.88;;
53521;SDS011;39398;48.382;9.802;2023-05-17T04:02:34;6.40;;;1.98;;
53521;SDS011;39398;48.382;9.802;2023-05-17T04:07:36;7.15;;;1.98;;
53521;SDS011;39398;48.382;9.802;2023-05-17T04:12:38;4.38;;;1.65;;
53521;SDS011;39398;48.382;9.802;2023-05-17T04:17:40;2.78;;;1.88;;
53521;SDS011;39398;48.382;9.802;2023-05-17T04:22:42;3.60;;;1.33;;
53521;SDS011;39398;48.382;9.802;2023-05-17T04:27:44;3.13;;;1.70;;
53521;SDS011;39398;48.382;9.802;2023-05-17T04:32:47;1.83;;;1.42;;
53521;SDS011;39398;48.382;9.802;2023-05-17T04:37:49;1.45;;;1.23;;
53521;SDS011;39398;48.382;9.802;2023-05-17T04:42:51;3.50;;;1.80;;
53521;SDS011;39398;48.382;9.802;2023-05-17T04:47:54;5.93;;;1.80;;
53521;SDS011;39398;48.382;9.802;2023-05-17T04:52:55;2.88;;;1.58;;
53521;SDS011;39398;48.382;9.802;2023-05-17T04:57:57;3.92;;;1.27;;
53521;SDS011;39398;48.382;9.802;2023-05-17T05:03:00;3.15;;;1.60;;
53521;SDS011;39398;48.382;9.802;2023-05-17T05:08:02;3.47;;;1.73;;
53521;SDS011;39398;48.382;9.802;2023-05-17T05:13:04;9.48;;;2.28;;
53521;SDS011;39398;48.382;9.802;2023-05-17T05:18:07;10.93;;;2.45;;
53521;SDS011;39398;48.382;9.802;2023-05-17T05:23:09;4.93;;;1.92;;
53521;SDS011;39398;48.382;9.802;2023-05-17T05:28:10;5.40;;;2.60;;
53521;SDS011;39398;48.382;9.802;2023-05-17T05:33:13;4.30;;;1.80;;
53521;SDS011;39398;48.382;9.802;2023-05-17T05:38:15;4.90;;;1.65;;
53521;SDS011;39398;48.382;9.802;2023-05-17T05:43:16;3.75;;;2.15;;
53521;SDS011;39398;48.382;9.802;2023-05-17T05:48:21;6.93;;;2.58;;
53521;SDS011;39398;48.382;9.802;2023-05-17T05:53:23;5.65;;;1.70;;
53521;SDS011;39398;48.382;9.802;2023-05-17T05:58:25;7.85;;;2.65;;
53521;SDS011;39398;48.382;9.802;2023-05-17T06:03:28;8.57;;;2.90;;
53521;SDS011;39398;48.382;9.802;2023-05-17T06:08:30;7.05;;;1.95;;
53521;SDS011;39398;48.382;9.802;2023-05-17T06:13:31;8.88;;;2.53;;
53521;SDS011;39398;48.382;9.802;2023-05-17T06:18:34;5.75;;;2.03;;
53521;SDS011;39398;48.382;9.802;2023-05-17T06:23:36;7.28;;;2.47;;
53521;SDS011;39398;48.382;9.802;2023-05-17T06:28:38;7.25;;;2.22;;
53521;SDS011;39398;48.382;9.802;2023-05-17T06:33:41;4.30;;;2.17;;
53521;SDS011;39398;48.382;9.802;2023-05-17T06:38:42;4.78;;;1.67;;
53521;SDS011;39398;48.382;9.802;2023-05-17T06:43:44;11.48;;;2.92;;
53521;SDS011;39398;48.382;9.802;2023-05-17T06:48:49;6.72;;;1.63;;
53521;SDS011;39398;48.382;9.802;2023-05-17T06:53:52;4.72;;;2.65;;
53521;SDS011;39398;48.382;9.802;2023-05-17T06:58:53;5.15;;;2.08;;
53521;SDS011;39398;48.382;9.802;2023-05-17T07:03:56;3.40;;;1.90;;
53521;SDS011;39398;48.382;9.802;2023-05-17T07:08:58;7.55;;;2.08;;
53521;SDS011;39398;48.382;9.802;2023-05-17T07:14:00;7.25;;;2.60;;
53521;SDS011;39398;48.382;9.802;2023-05-17T07:19:03;5.80;;;2.50;;
53521;SDS011;39398;48.382;9.802;2023-05-17T07:24:05;4.53;;;1.85;;
53521;SDS011;39398;48.382;9.802;2023-05-17T07:29:06;5.80;;;2.72;;
53521;SDS011;39398;48.382;9.802;2023-05-17T07:34:09;10.77;;;2.40;;
53521;SDS011;39398;48.382;9.802;2023-05-17T07:39:11;4.68;;;2.30;;
53521;SDS011;39398;48.382;9.802;2023-05-17T07:44:13;6.28;;;2.22;;
53521;SDS011;39398;48.382;9.802;2023-05-17T07:49:16;5.38;;;2.38;;
53521;SDS011;39398;48.382;9.802;2023-05-17T07:54:21;3.33;;;1.73;;
53521;SDS011;39398;48.382;9.802;2023-05-17T07:59:23;5.78;;;2.60;;
53521;SDS011;39398;48.382;9.802;2023-05-17T08:04:27;4.45;;;2.00;;
53521;SDS011;39398;48.382;9.802;2023-05-17T08:09:29;4.68;;;1.65;;
53521;SDS011;39398;48.382;9.802;2023-05-17T08:14:30;4.10;;;1.73;;
53521;SDS011;39398;48.382;9.802;2023-05-17T08:19:33;7.55;;;1.80;;
53521;SDS011;39398;48.382;9.802;2023-05-17T08:24:35;9.32;;;3.15;;
53521;SDS011;39398;48.382;9.802;2023-05-17T08:29:37;7.95;;;2.22;;
53521;SDS011;39398;48.382;9.802;2023-05-17T08:34:41;4.57;;;1.95;;
53521;SDS011;39398;48.382;9.802;2023-05-17T08:39:43;5.10;;;2.50;;
53521;SDS011;39398;48.382;9.802;2023-05-17T08:44:44;3.72;;;1.92;;
53521;SDS011;39398;48.382;9.802;2023-05-17T08:49:48;5.55;;;2.03;;
53521;SDS011;39398;48.382;9.802;2023-05-17T08:54:49;7.03;;;2.92;;
53521;SDS011;39398;48.382;9.802;2023-05-17T08:59:51;3.25;;;2.33;;
53521;SDS011;39398;48.382;9.802;2023-05-17T09:04:55;7.38;;;3.10;;
53521;SDS011;39398;48.382;9.802;2023-05-17T09:09:57;3.67;;;2.05;;
53521;SDS011;39398;48.382;9.802;2023-05-17T09:15:12;10.60;;;2.55;;
53521;SDS011;39398;48.382;9.802;2023-05-17T09:20:16;8.60;;;2.22;;
53521;SDS011;39398;48.382;9.802;2023-05-17T09:25:23;4.00;;;1.98;;
53521;SDS011;39398;48.382;9.802;2023-05-17T09:30:28;7.53;;;2.13;;
53521;SDS011;39398;48.382;9.802;2023-05-17T09:35:32;5.07;;;2.30;;
53521;SDS011;39398;48.382;9.802;2023-05-17T09:40:36;6.05;;;1.80;;
53521;SDS011;39398;48.382;9.802;2023-05-17T09:45:38;5.50;;;1.90;;
53521;SDS011;39398;48.382;9.802;2023-05-17T09:50:45;7.38;;;2.50;;
53521;SDS011;39398;48.382;9.802;2023-05-17T09:55:49;4.05;;;2.22;;
53521;SDS011;39398;48.382;9.802;2023-05-17T10:00:59;3.72;;;2.15;;
53521;SDS011;39398;48.382;9.802;2023-05-17T10:06:04;6.90;;;2.25;;
53521;SDS011;39398;48.382;9.802;2023-05-17T10:11:07;3.78;;;2.05;;
53521;SDS011;39398;48.382;9.802;2023-05-17T10:16:10;5.95;;;2.20;;
53521;SDS011;39398;48.382;9.802;2023-05-17T10:21:14;4.07;;;1.83;;
53521;SDS011;39398;48.382;9.802;2023-05-17T10:26:16;4.97;;;2.05;;
53521;SDS011;39398;48.382;9.802;2023-05-17T10:31:20;5.40;;;2.60;;
53521;SDS011;39398;48.382;9.802;2023-05-17T10:36:25;3.90;;;2.60;;
53521;SDS011;39398;48.382;9.802;2023-05-17T10:41:28;3.55;;;2.80;;
53521;SDS011;39398;48.382;9.802;2023-05-17T10:46:32;4.80;;;3.15;;
53521;SDS011;39398;48.382;9.802;2023-05-17T10:51:36;6.85;;;2.42;;
53521;SDS011;39398;48.382;9.802;2023-05-17T10:56:39;3.00;;;2.10;;
53521;SDS011;39398;48.382;9.802;2023-05-17T11:01:49;7.63;;;2.08;;
53521;SDS011;39398;48.382;9.802;2023-05-17T11:07:21;4.65;;;2.40;;
53521;SDS011;39398;48.382;9.802;2023-05-17T11:12:29;4.40;;;2.20;;
53521;SDS011;39398;48.382;9.802;2023-05-17T11:17:35;3.25;;;2.28;;
53521;SDS011;39398;48.382;9.802;2023-05-17T11:22:50;4.03;;;2.42;;
53521;SDS011;39398;48.382;9.802;2023-05-17T11:27:56;3.38;;;1.98;;
53521;SDS011;39398;48.382;9.802;2023-05-17T11:33:00;6.13;;;2.50;;
53521;SDS011;39398;48.382;9.802;2023-05-17T11:38:13;5.32;;;2.88;;
53521;SDS011;39398;48.382;9.802;2023-05-17T11:43:17;5.15;;;2.60;;
53521;SDS011;39398;48.382;9.802;2023-05-17T11:48:20;6.30;;;2.90;;
53521;SDS011;39398;48.382;9.802;2023-05-17T11:53:24;3.80;;;2.75;;
53521;SDS011;39398;48.382;9.802;2023-05-17T11:58:26;3.00;;;2.03;;
53521;SDS011;39398;48.382;9.802;2023-05-17T12:03:28;5.40;;;2.53;;
53521;SDS011;39398;48.382;9.802;2023-05-17T12:08:32;3.15;;;1.88;;
53521;SDS011;39398;48.382;9.802;2023-05-17T12:13:35;2.45;;;1.83;;
53521;SDS011;39398;48.382;9.802;2023-05-17T12:18:36;5.55;;;2.78;;
53521;SDS011;39398;48.382;9.802;2023-05-17T12:23:41;5.63;;;3.47;;
53521;SDS011;39398;48.382;9.802;2023-05-17T12:28:45;6.18;;;2.78;;
53521;SDS011;39398;48.382;9.802;2023-05-17T12:33:53;4.03;;;1.70;;
53521;SDS011;39398;48.382;9.802;2023-05-17T12:38:57;3.55;;;2.40;;
53521;SDS011;39398;48.382;9.802;2023-05-17T12:43:59;5.85;;;2.60;;
53521;SDS011;39398;48.382;9.802;2023-05-17T12:49:15;5.90;;;2.40;;
53521;SDS011;39398;48.382;9.802;2023-05-17T12:54:26;5.32;;;2.75;;
53521;SDS011;39398;48.382;9.802;2023-05-17T12:59:29;6.93;;;3.45;;
53521;SDS011;39398;48.382;9.802;2023-05-17T13:04:32;7.85;;;3.10;;
53521;SDS011;39398;48.382;9.802;2023-05-17T13:09:43;4.65;;;2.60;;
53521;SDS011;39398;48.382;9.802;2023-05-17T13:14:46;4.20;;;2.20;;
53521;SDS011;39398;48.382;9.802;2023-05-17T13:19:49;4.30;;;2.60;;
53521;SDS011;39398;48.382;9.802;2023-05-17T13:24:52;6.38;;;3.50;;
53521;SDS011;39398;48.382;9.802;2023-05-17T13:29:54;6.60;;;4.65;;
53521;SDS011;39398;48.382;9.802;2023-05-17T13:34:56;5.82;;;3.25;;
53521;SDS011;39398;48.382;9.802;2023-05-17T13:39:59;6.10;;;3.30;;
53521;SDS011;39398;48.382;9.802;2023-05-17T13:45:00;8.55;;;3.88;;
53521;SDS011;39398;48.382;9.802;2023-05-17T13:50:02;4.38;;;2.47;;
53521;SDS011;39398;48.382;9.802;2023-05-17T13:55:06;6.53;;;3.22;;
53521;SDS011;39398;48.382;9.802;2023-05-17T14:00:09;4.05;;;3.13;;
53521;SDS011;39398;48.382;9.802;2023-05-17T14:05:11;8.40;;;3.67;;
53521;SDS011;39398;48.382;9.802;2023-05-17T14:10:14;7.65;;;2.88;;
53521;SDS011;39398;48.382;9.802;2023-05-17T14:15:16;6.68;;;3.75;;
53521;SDS011;39398;48.382;9.802;2023-05-17T14:20:17;8.02;;;4.40;;
53521;SDS011;39398;48.382;9.802;2023-05-17T14:25:21;7.85;;;4.80;;
53521;SDS011;39398;48.382;9.802;2023-05-17T14:30:23;11.13;;;5.43;;
53521;SDS011;39398;48.382;9.802;2023-05-17T14:35:25;7.57;;;3.65;;
53521;SDS011;39398;48.382;9.802;2023-05-17T14:40:28;4.53;;;2.63;;
53521;SDS011;39398;48.382;9.802;2023-05-17T14:45:30;8.80;;;5.32;;
53521;SDS011;39398;48.382;9.802;2023-05-17T14:55:35;8.82;;;3.58;;
53521;SDS011;39398;48.382;9.802;2023-05-17T15:00:37;6.50;;;4.53;;
53521;SDS011;39398;48.382;9.802;2023-05-17T15:05:38;8.32;;;5.07;;
53521;SDS011;39398;48.382;9.802;2023-05-17T15:10:41;9.30;;;4.72;;
53521;SDS011;39398;48.382;9.802;2023-05-17T15:15:43;6.03;;;3.58;;
53521;SDS011;39398;48.382;9.802;2023-05-17T15:20:44;5.60;;;3.13;;
53521;SDS011;39398;48.382;9.802;2023-05-17T15:25:47;5.07;;;3.20;;
53521;SDS011;39398;48.382;9.802;2023-05-17T15:30:57;4.97;;;2.72;;
53521;SDS011;39398;48.382;9.802;2023-05-17T15:36:00;9.93;;;4.82;;
53521;SDS011;39398;48.382;9.802;2023-05-17T15:41:04;9.50;;;4.75;;
53521;SDS011;39398;48.382;9.802;2023-05-17T15:46:07;7.32;;;3.55;;
53521;SDS011;39398;48.382;9.802;2023-05-17T15:51:09;6.65;;;2.78;;
53521;SDS011;39398;48.382;9.802;2023-05-17T15:56:12;7.15;;;3.55;;
53521;SDS011;39398;48.382;9.802;2023-05-17T16:01:13;2.75;;;2.50;;
53521;SDS011;39398;48.382;9.802;2023-05-17T16:06:15;7.68;;;4.50;;
53521;SDS011;39398;48.382;9.802;2023-05-17T16:11:18;7.50;;;3.60;;
53521;SDS011;39398;48.382;9.802;2023-05-17T16:16:21;8.07;;;3.92;;
53521;SDS011;39398;48.382;9.802;2023-05-17T16:21:23;8.23;;;3.15;;
53521;SDS011;39398;48.382;9.802;2023-05-17T16:26:26;7.70;;;4.38;;
53521;SDS011;39398;48.382;9.802;2023-05-17T16:31:27;7.32;;;4.53;;
53521;SDS011;39398;48.382;9.802;2023-05-17T16:36:29;8.90;;;4.30;;
53521;SDS011;39398;48.382;9.802;2023-05-17T16:41:32;8.25;;;4.60;;
53521;SDS011;39398;48.382;9.802;2023-05-17T16:46:35;7.93;;;4.53;;
53521;SDS011;39398;48.382;9.802;2023-05-17T16:51:37;7.53;;;4.55;;
53521;SDS011;39398;48.382;9.802;2023-05-17T16:56:40;7.65;;;4.53;;
53521;SDS011;39398;48.382;9.802;2023-05-17T17:01:41;7.15;;;3.67;;
53521;SDS011;39398;48.382;9.802;2023-05-17T17:06:43;12.50;;;4.88;;
53521;SDS011;39398;48.382;9.802;2023-05-17T17:11:46;7.40;;;3.30;;
53521;SDS011;39398;48.382;9.802;2023-05-17T17:16:48;8.48;;;4.25;;
53521;SDS011;39398;48.382;9.802;2023-05-17T17:21:49;6.60;;;4.38;;
53521;SDS011;39398;48.382;9.802;2023-05-17T17:26:52;9.88;;;4.28;;
53521;SDS011;39398;48.382;9.802;2023-05-17T17:31:54;7.65;;;5.25;;
53521;SDS011;39398;48.382;9.802;2023-05-17T17:36:56;7.55;;;3.72;;
53521;SDS011;39398;48.382;9.802;2023-05-17T17:41:59;4.85;;;2.78;;
53521;SDS011;39398;48.382;9.802;2023-05-17T17:47:01;5.97;;;2.92;;
53521;SDS011;39398;48.382;9.802;2023-05-17T17:52:03;6.95;;;4.22;;
53521;SDS011;39398;48.382;9.802;2023-05-17T17:57:07;6.15;;;4.10;;
53521;SDS011;39398;48.382;9.802;2023-05-17T18:02:08;6.53;;;4.05;;
53521;SDS011;39398;48.382;9.802;2023-05-17T18:07:10;4.72;;;2.90;;
53521;SDS011;39398;48.382;9.802;2023-05-17T18:12:13;11.20;;;3.60;;
53521;SDS011;39398;48.382;9.802;2023-05-17T18:17:16;8.93;;;3.63;;
53521;SDS011;39398;48.382;9.802;2023-05-17T18:22:17;8.40;;;3.40;;
53521;SDS011;39398;48.382;9.802;2023-05-17T18:27:20;10.63;;;5.07;;
53521;SDS011;39398;48.382;9.802;2023-05-17T18:32:22;6.90;;;3.80;;
53521;SDS011;39398;48.382;9.802;2023-05-17T18:37:24;6.80;;;4.60;;
53521;SDS011;39398;48.382;9.802;2023-05-17T18:42:27;4.65;;;2.83;;
53521;SDS011;39398;48.382;9.802;2023-05-17T18:47:28;6.93;;;2.92;;
53521;SDS011;39398;48.382;9.802;2023-05-17T18:52:31;9.25;;;3.63;;
53521;SDS011;39398;48.382;9.802;2023-05-17T18:57:34;6.97;;;3.10;;
53521;SDS011;39398;48.382;9.802;2023-05-17T19:02:35;7.18;;;3.58;;
53521;SDS011;39398;48.382;9.802;2023-05-17T19:07:37;11.90;;;4.43;;
53521;SDS011;39398;48.382;9.802;2023-05-17T19:12:40;8.68;;;4.72;;
53521;SDS011;39398;48.382;9.802;2023-05-17T19:17:45;9.60;;;4.93;;
53521;SDS011;39398;48.382;9.802;2023-05-17T19:22:46;10.32;;;5.40;;
53521;SDS011;39398;48.382;9.802;2023-05-17T19:27:49;13.13;;;6.25;;
53521;SDS011;39398;48.382;9.802;2023-05-17T19:32:51;9.18;;;5.55;;
53521;SDS011;39398;48.382;9.802;2023-05-17T19:37:53;12.48;;;5.55;;
53521;SDS011;39398;48.382;9.802;2023-05-17T19:42:56;12.18;;;5.38;;
53521;SDS011;39398;48.382;9.802;2023-05-17T19:47:57;9.18;;;5.35;;
53521;SDS011;39398;48.382;9.802;2023-05-17T19:52:59;9.50;;;5.60;;
53521;SDS011;39398;48.382;9.802;2023-05-17T19:58:02;10.80;;;5.93;;
53521;SDS011;39398;48.382;9.802;2023-05-17T20:03:04;12.32;;;5.75;;
53521;SDS011;39398;48.382;9.802;2023-05-17T20:08:06;13.50;;;6.97;;
53521;SDS011;39398;48.382;9.802;2023-05-17T20:13:09;8.55;;;5.65;;
53521;SDS011;39398;48.382;9.802;2023-05-17T20:18:11;11.52;;;6.25;;
53521;SDS011;39398;48.382;9.802;2023-05-17T20:23:12;9.80;;;5.13;;
53521;SDS011;39398;48.382;9.802;2023-05-17T20:28:16;15.13;;;6.68;;
53521;SDS011;39398;48.382;9.802;2023-05-17T20:33:17;9.95;;;6.05;;
53521;SDS011;39398;48.382;9.802;2023-05-17T20:38:20;11.25;;;5.95;;
53521;SDS011;39398;48.382;9.802;2023-05-17T20:43:23;14.88;;;6.50;;
53521;SDS011;39398;48.382;9.802;2023-05-17T20:48:25;11.63;;;6.03;;
53521;SDS011;39398;48.382;9.802;2023-05-17T20:53:27;12.45;;;6.22;;
53521;SDS011;39398;48.382;9.802;2023-05-17T20:58:30;10.77;;;6.20;;
53521;SDS011;39398;48.382;9.802;2023-05-17T21:03:32;9.70;;;6.03;;
53521;SDS011;39398;48.382;9.802;2023-05-17T21:08:34;13.95;;;6.68;;
53521;SDS011;39398;48.382;9.802;2023-05-17T21:13:37;10.10;;;5.93;;
53521;SDS011;39398;48.382;9.802;2023-05-17T21:18:39;12.75;;;6.03;;
53521;SDS011;39398;48.382;9.802;2023-05-17T21:23:40;9.52;;;5.03;;
53521;SDS011;39398;48.382;9.802;2023-05-17T21:28:43;14.68;;;6.20;;
53521;SDS011;39398;48.382;9.802;2023-05-17T21:33:45;13.65;;;5.85;;
53521;SDS011;39398;48.382;9.802;2023-05-17T21:38:47;12.68;;;5.85;;
53521;SDS011;39398;48.382;9.802;2023-05-17T21:43:50;8.05;;;5.93;;
53521;SDS011;39398;48.382;9.802;2023-05-17T21:48:51;13.77;;;5.95;;
53521;SDS011;39398;48.382;9.802;2023-05-17T21:53:53;10.98;;;5.68;;
53521;SDS011;39398;48.382;9.802;2023-05-17T21:58:56;11.05;;;5.72;;
53521;SDS011;39398;48.382;9.802;2023-05-17T22:03:57;16.52;;;5.93;;
53521;SDS011;39398;48.382;9.802;2023-05-17T22:08:59;10.20;;;5.57;;
53521;SDS011;39398;48.382;9.802;2023-05-17T22:14:02;14.85;;;6.60;;
53521;SDS011;39398;48.382;9.802;2023-05-17T22:19:04;13.13;;;6.35;;
53521;SDS011;39398;48.382;9.802;2023-05-17T22:24:06;12.65;;;6.10;;
53521;SDS011;39398;48.382;9.802;2023-05-17T22:29:09;10.65;;;6.35;;
53521;SDS011;39398;48.382;9.802;2023-05-17T22:34:11;12.90;;;6.30;;
53521;SDS011;39398;48.382;9.802;2023-05-17T22:39:12;17.70;;;6.60;;
53521;SDS011;39398;48.382;9.802;2023-05-17T22:44:15;13.32;;;6.78;;
53521;SDS011;39398;48.382;9.802;2023-05-17T22:49:17;12.35;;;6.85;;
53521;SDS011;39398;48.382;9.802;2023-05-17T22:54:19;11.35;;;6.00;;
53521;SDS011;39398;48.382;9.802;2023-05-17T22:59:22;10.95;;;5.72;;
53521;SDS011;39398;48.382;9.802;2023-05-17T23:04:23;14.15;;;6.10;;
53521;SDS011;39398;48.382;9.802;2023-05-17T23:09:25;13.95;;;6.30;;
53521;SDS011;39398;48.382;9.802;2023-05-17T23:14:28;11.68;;;6.22;;
53521;SDS011;39398;48.382;9.802;2023-05-17T23:19:30;12.77;;;6.45;;
53521;SDS011;39398;48.382;9.802;2023-05-17T23:24:32;10.55;;;5.95;;
53521;SDS011;39398;48.382;9.802;2023-05-17T23:29:35;11.40;;;5.95;;
53521;SDS011;39398;48.382;9.802;2023-05-17T23:34:37;12.00;;;6.25;;
53521;SDS011;39398;48.382;9.802;2023-05-17T23:39:39;11.00;;;5.70;;
53521;SDS011;39398;48.382;9.802;2023-05-17T23:44:42;11.63;;;6.38;;
53521;SDS011;39398;48.382;9.802;2023-05-17T23:49:43;15.30;;;6.85;;
53521;SDS011;39398;48.382;9.802;2023-05-17T23:54:45;11.13;;;6.10;;
53521;SDS011;39398;48.382;9.802;2023-05-17T23:59:48;13.55;;;6.00;;
